Time;durP1;ratioP1;P1;durP2;ratioP2;P2;SDS_P1;SDS_P2;PMS_P1;PMS_P2;Temp;Humidity;BMP_temperature;BMP_pressure;BME280_temperature;BME280_humidity;BME280_pressure;Samples;Min_cycle;Max_cycle;Signal;HPM_P1;HPM_P2
2023/11/16 00:00:23;;;;;;;;;5.00;3.75;;;;;9.32;94.01;99535.47;6329428;20;1809722;-41
2023/11/16 00:02:52;;;;;;;;;5.00;3.50;;;;;9.23;94.08;99540.41;6318519;20;2732594;-41
2023/11/16 00:05:20;;;;;;;;;2.00;2.00;;;;;9.23;94.89;99535.06;6289780;20;2738825;-42
2023/11/16 00:07:48;;;;;;;;;6.00;4.00;;;;;9.28;94.23;99534.78;6291395;20;2746055;-41
2023/11/16 00:10:19;;;;;;;;;7.00;3.75;;;;;9.24;94.19;99535.91;6302692;20;1809731;-41
2023/11/16 00:12:48;;;;;;;;;3.00;3.00;;;;;9.26;94.16;99535.84;6318062;20;2756665;-41
2023/11/16 00:15:16;;;;;;;;;2.00;2.00;;;;;9.38;92.93;99537.81;6288784;20;2744044;-41
2023/11/16 00:17:45;;;;;;;;;4.00;3.00;;;;;9.37;93.21;99539.63;6306293;20;1813950;-42
2023/11/16 00:20:13;;;;;;;;;3.00;3.00;;;;;9.34;93.29;99542.47;6320329;20;2750255;-41
2023/11/16 00:22:42;;;;;;;;;4.00;4.00;;;;;9.26;93.66;99544.72;6288101;20;2748227;-41
2023/11/16 00:25:12;;;;;;;;;6.00;4.00;;;;;9.28;93.53;99539.28;6287717;20;2750418;-41
2023/11/16 00:27:42;;;;;;;;;3.00;3.00;;;;;9.22;94.15;99549.41;6289199;20;2748195;-42
2023/11/16 00:30:12;;;;;;;;;3.00;3.00;;;;;9.43;93.03;99552.66;6289383;20;2754520;-40
2023/11/16 00:32:40;;;;;;;;;3.00;3.00;;;;;9.31;92.77;99548.00;6287190;20;2733611;-41
2023/11/16 00:35:09;;;;;;;;;2.50;2.00;;;;;9.40;92.54;99557.31;6287307;20;2743985;-41
2023/11/16 00:37:37;;;;;;;;;3.50;1.50;;;;;9.42;92.27;99556.25;6287841;20;2748158;-41
2023/11/16 00:40:07;;;;;;;;;2.00;2.00;;;;;9.39;92.66;99553.78;6289942;20;2735735;-41
2023/11/16 00:42:36;;;;;;;;;3.50;3.00;;;;;9.34;92.71;99549.63;6288864;20;2750367;-41
2023/11/16 00:45:08;;;;;;;;;2.43;1.86;;;;;9.43;91.83;99558.00;6327701;20;1792999;-42
2023/11/16 00:47:36;;;;;;;;;5.00;3.00;;;;;9.39;91.75;99545.72;6319360;20;2740928;-41
2023/11/16 00:50:07;;;;;;;;;2.25;2.00;;;;;9.51;91.75;99559.38;6306091;20;1813934;-41
2023/11/16 00:52:35;;;;;;;;;3.50;3.00;;;;;9.35;92.38;99554.06;6317992;20;2725324;-42
2023/11/16 00:55:05;;;;;;;;;4.00;3.00;;;;;9.31;92.78;99549.81;6306104;20;1817085;-42
2023/11/16 00:57:33;;;;;;;;;3.00;3.00;;;;;9.39;92.60;99551.09;6319502;20;2756601;-42
2023/11/16 01:00:03;;;;;;;;;2.00;2.00;;;;;9.39;93.08;99550.22;6289335;20;2745087;-40
2023/11/16 01:02:31;;;;;;;;;4.00;4.00;;;;;9.51;92.32;99562.91;6304577;20;1825514;-41
2023/11/16 01:05:00;;;;;;;;;3.50;3.00;;;;;9.34;92.08;99569.25;6338190;20;1808737;-41
2023/11/16 01:07:28;;;;;;;;;3.00;3.00;;;;;9.39;92.77;99567.16;6321560;20;2733707;-42
2023/11/16 01:09:56;;;;;;;;;2.00;2.00;;;;;9.27;93.08;99567.91;6288205;20;2744071;-43
2023/11/16 01:12:28;;;;;;;;;2.50;2.50;;;;;9.44;93.09;99566.91;6303252;20;1813923;-42
2023/11/16 01:14:59;;;;;;;;;3.00;3.00;;;;;9.57;91.57;99570.59;6317973;20;2733651;-43
2023/11/16 01:17:32;;;;;;;;;2.00;2.00;;;;;9.51;92.03;99575.47;6288845;20;2748272;-41
2023/11/16 01:20:04;;;;;;;;;2.50;2.50;;;;;9.49;91.94;99574.69;6288454;20;2744162;-41
2023/11/16 01:22:40;;;;;;;;;3.50;2.00;;;;;9.52;92.30;99574.50;6304134;20;1815949;-41
2023/11/16 01:25:15;;;;;;;;;2.00;2.00;;;;;9.33;92.49;99572.03;6318867;20;2742958;-41
2023/11/16 01:27:45;;;;;;;;;3.75;3.75;;;;;9.31;93.33;99568.59;6303804;20;1808765;-43
2023/11/16 01:30:13;;;;;;;;;2.50;2.00;;;;;9.30;93.47;99567.72;6319183;20;2743985;-41
2023/11/16 01:32:41;;;;;;;;;3.00;3.00;;;;;9.33;93.47;99567.53;6315639;20;2738948;-41
2023/11/16 01:35:10;;;;;;;;;3.00;3.00;;;;;9.17;93.47;99564.03;6318566;20;2729484;-41
2023/11/16 01:37:39;;;;;;;;;2.00;2.00;;;;;9.22;93.80;99575.34;6302362;20;1811871;-43
2023/11/16 01:40:08;;;;;;;;;2.25;2.00;;;;;9.17;93.38;99577.41;6335923;20;1808143;-42
2023/11/16 01:42:36;;;;;;;;;1.50;1.50;;;;;9.30;93.09;99581.13;6316777;20;2749268;-42
2023/11/16 01:45:17;;;;;;;;;3.00;3.00;;;;;9.36;92.61;99588.78;6305863;20;1813962;-40
2023/11/16 01:47:46;;;;;;;;;2.00;2.00;;;;;9.58;91.74;99593.75;6334037;20;1809887;-41
2023/11/16 01:50:15;;;;;;;;;2.50;2.50;;;;;9.41;91.85;99593.88;6333360;20;1806706;-42
2023/11/16 01:52:42;;;;;;;;;3.00;3.00;;;;;9.37;91.98;99590.53;6316143;20;2739804;-42
2023/11/16 01:55:11;;;;;;;;;3.00;2.00;;;;;9.23;93.43;99590.44;6337155;20;1811942;-42
2023/11/16 01:57:40;;;;;;;;;1.50;1.50;;;;;9.20;93.21;99593.31;6332086;20;1809791;-42
2023/11/16 02:00:14;;;;;;;;;2.00;2.00;;;;;9.19;93.58;99583.56;6314325;20;2750407;-40
2023/11/16 02:02:45;;;;;;;;;5.00;2.00;;;;;9.20;93.63;99593.31;6285454;20;2748144;-39
2023/11/16 02:05:13;;;;;;;;;4.00;3.00;;;;;9.25;93.15;99591.22;6284660;20;2739807;-41
2023/11/16 02:07:41;;;;;;;;;2.00;2.00;;;;;9.12;93.62;99590.22;6283483;20;2739887;-40
2023/11/16 02:10:09;;;;;;;;;2.00;2.00;;;;;9.33;92.93;99598.84;6299431;20;1815729;-42
2023/11/16 02:12:37;;;;;;;;;3.00;3.00;;;;;9.26;93.13;99609.03;6313345;20;2736115;-40
2023/11/16 02:15:07;;;;;;;;;2.25;2.25;;;;;9.19;93.56;99608.53;6332419;20;1811869;-40
2023/11/16 02:17:39;;;;;;;;;4.00;3.00;;;;;9.25;93.04;99615.34;6318360;20;2749330;-40
2023/11/16 02:20:10;;;;;;;;;1.67;1.67;;;;;9.22;93.32;99611.03;6307212;20;1803999;-40
2023/11/16 02:22:40;;;;;;;;;1.25;1.25;;;;;9.15;93.58;99619.50;6333095;20;1804524;-41
2023/11/16 02:25:09;;;;;;;;;4.00;3.00;;;;;9.15;93.47;99616.81;6316877;20;2747216;-41
2023/11/16 02:27:37;;;;;;;;;4.00;3.00;;;;;9.27;92.92;99626.84;6288220;20;2756589;-40
2023/11/16 02:30:08;;;;;;;;;3.00;2.00;;;;;9.38;92.14;99639.63;6285121;20;2743080;-40
2023/11/16 02:32:36;;;;;;;;;2.50;2.00;;;;;9.19;92.59;99637.13;6284911;20;2750336;-41
2023/11/16 02:35:06;;;;;;;;;2.50;1.75;;;;;9.04;93.40;99641.53;6302851;20;1811841;-41
2023/11/16 02:37:33;;;;;;;;;2.00;2.00;;;;;9.06;93.65;99647.66;6316685;20;2743985;-39
2023/11/16 02:40:04;;;;;;;;;2.50;2.00;;;;;9.00;94.46;99646.22;6285463;20;2741956;-43
2023/11/16 02:42:31;;;;;;;;;3.00;2.00;;;;;9.07;94.34;99656.56;6283738;20;2750293;-40
2023/11/16 02:45:00;;;;;;;;;3.00;3.00;;;;;9.15;93.54;99649.81;6287575;20;2745098;-43
2023/11/16 02:47:28;;;;;;;;;2.50;2.50;;;;;9.20;93.13;99652.25;6285169;20;2746048;-41
2023/11/16 02:49:56;;;;;;;;;4.00;3.00;;;;;9.16;93.18;99653.34;6287083;20;2743061;-41
2023/11/16 02:52:24;;;;;;;;;2.50;2.50;;;;;9.04;93.87;99651.38;6284195;20;2756515;-41
2023/11/16 02:54:51;;;;;;;;;2.00;2.00;;;;;9.08;93.71;99650.25;6285948;20;2743015;-41
2023/11/16 02:57:20;;;;;;;;;2.00;2.00;;;;;9.17;93.58;99649.75;6284752;20;2748199;-41
2023/11/16 02:59:49;;;;;;;;;3.00;2.50;;;;;9.11;93.62;99653.63;6285273;20;2752309;-42
2023/11/16 03:02:18;;;;;;;;;5.00;2.00;;;;;9.05;93.92;99653.09;6284029;20;2735757;-41
2023/11/16 03:04:46;;;;;;;;;4.00;3.00;;;;;9.10;94.26;99653.72;6285776;20;2737813;-39
2023/11/16 03:07:14;;;;;;;;;2.00;2.00;;;;;8.97;94.42;99653.53;6316245;20;2744014;-42
2023/11/16 03:10:01;;;;;;;;;4.00;3.00;;;;;8.83;95.63;99646.25;6286297;20;2737801;-42
2023/11/16 03:12:29;;;;;;;;;3.00;3.00;;;;;8.85;95.83;99652.41;6315233;20;2738754;-42
2023/11/16 03:14:58;;;;;;;;;4.00;2.25;;;;;8.77;96.61;99652.81;6327903;20;1809853;-41
2023/11/16 03:17:27;;;;;;;;;4.00;4.00;;;;;8.74;97.71;99655.69;6315822;20;2755563;-43
2023/11/16 03:19:56;;;;;;;;;2.25;2.25;;;;;8.53;98.20;99659.47;6300558;20;1811862;-43
2023/11/16 03:22:25;;;;;;;;;4.00;4.00;;;;;8.71;98.59;99673.69;6314598;20;2749179;-41
2023/11/16 03:24:53;;;;;;;;;3.00;3.00;;;;;8.70;98.36;99675.50;6282196;20;2728362;-42
2023/11/16 03:27:23;;;;;;;;;2.25;2.25;;;;;8.77;99.06;99676.91;6355642;20;2576344;-40
2023/11/16 03:29:52;;;;;;;;;4.50;3.25;;;;;8.84;98.95;99681.94;6302724;20;1820350;-41
2023/11/16 03:32:26;;;;;;;;;3.50;3.50;;;;;8.69;98.57;99683.59;6315624;20;2746210;-40
2023/11/16 03:34:54;;;;;;;;;3.25;3.00;;;;;8.74;99.11;99692.25;6299911;20;1804083;-40
2023/11/16 03:37:22;;;;;;;;;2.00;2.00;;;;;8.76;98.88;99691.22;6319803;20;2752479;-40
2023/11/16 03:39:51;;;;;;;;;3.00;3.00;;;;;8.64;99.32;99686.56;6307006;20;1806638;-40
2023/11/16 03:42:22;;;;;;;;;5.00;2.00;;;;;8.68;99.99;99698.81;6315058;20;2740902;-41
2023/11/16 03:44:51;;;;;;;;;4.00;2.00;;;;;8.49;100.00;99692.72;6304660;20;1817101;-40
2023/11/16 03:47:19;;;;;;;;;3.25;2.00;;;;;8.64;100.00;99689.22;6337929;20;1812668;-40
2023/11/16 03:49:48;;;;;;;;;3.50;3.50;;;;;8.75;100.00;99704.72;6337444;20;1812836;-41
2023/11/16 03:52:17;;;;;;;;;3.50;3.50;;;;;8.56;100.00;99705.69;6335151;20;1817053;-40
2023/11/16 03:54:45;;;;;;;;;2.00;2.00;;;;;8.60;100.00;99722.44;6319426;20;2741979;-40
2023/11/16 03:57:13;;;;;;;;;2.00;2.00;;;;;8.67;100.00;99725.69;6289558;20;2747237;-42
2023/11/16 03:59:41;;;;;;;;;4.00;3.00;;;;;8.67;100.00;99717.66;6291217;20;2752389;-41
2023/11/16 04:02:09;;;;;;;;;4.00;4.00;;;;;8.53;100.00;99724.59;6288054;20;2751393;-41
2023/11/16 04:04:38;;;;;;;;;2.25;1.00;;;;;8.63;100.00;99729.44;6305176;20;1809697;-41
2023/11/16 04:07:06;;;;;;;;;3.75;3.75;;;;;8.50;100.00;99726.53;6335290;20;1805545;-40
2023/11/16 04:09:37;;;;;;;;;3.00;3.00;;;;;8.63;100.00;99726.78;6322451;20;2745080;-41
2023/11/16 04:12:06;;;;;;;;;2.00;2.00;;;;;8.64;99.99;99728.53;6287030;20;2744080;-43
2023/11/16 04:14:40;;;;;;;;;3.75;3.00;;;;;8.38;100.00;99717.34;6336997;20;1813955;-42
2023/11/16 04:17:13;;;;;;;;;4.80;3.20;;;;;8.45;100.00;99723.25;6361593;20;2571126;-40
2023/11/16 04:19:42;;;;;;;;;3.50;2.25;;;;;8.33;100.00;99719.38;6337862;20;1806647;-43
2023/11/16 04:22:10;;;;;;;;;4.00;3.00;;;;;8.46;100.00;99731.22;6320949;20;2729465;-41
2023/11/16 04:24:41;;;;;;;;;2.50;2.50;;;;;8.39;100.00;99713.72;6318009;20;2756611;-40
2023/11/16 04:27:09;;;;;;;;;3.00;3.00;;;;;8.33;100.00;99722.06;6288504;20;2750336;-42
2023/11/16 04:29:38;;;;;;;;;4.00;4.00;;;;;8.40;100.00;99726.19;6303840;20;1814931;-40
2023/11/16 04:32:06;;;;;;;;;7.50;3.00;;;;;8.42;100.00;99721.59;6319552;20;2746154;-40
2023/11/16 04:34:35;;;;;;;;;2.00;2.00;;;;;8.54;100.00;99728.13;6303329;20;1814962;-40
2023/11/16 04:37:08;;;;;;;;;2.00;2.00;;;;;8.51;100.00;99723.81;6336268;20;1818142;-42
2023/11/16 04:39:37;;;;;;;;;3.50;3.50;;;;;8.52;100.00;99727.34;6321387;20;2737871;-41
2023/11/16 04:42:05;;;;;;;;;2.00;2.00;;;;;8.48;100.00;99726.66;6319515;20;2744096;-43
2023/11/16 04:44:36;;;;;;;;;4.50;3.00;;;;;8.55;100.00;99730.72;6286667;20;2739805;-41
2023/11/16 04:47:06;;;;;;;;;3.25;3.25;;;;;8.55;100.00;99730.72;6336464;20;1818031;-41
2023/11/16 04:49:34;;;;;;;;;5.00;3.00;;;;;8.50;100.00;99732.75;6318703;20;2741954;-41
2023/11/16 04:52:03;;;;;;;;;4.75;3.00;;;;;8.48;100.00;99729.31;6302975;20;1814150;-41
2023/11/16 04:54:31;;;;;;;;;4.50;4.00;;;;;8.44;100.00;99737.59;6319598;20;2755496;-42
2023/11/16 04:56:59;;;;;;;;;6.00;6.00;;;;;8.67;100.00;99733.72;6288310;20;2740955;-40
2023/11/16 04:59:26;;;;;;;;;4.50;4.50;;;;;8.60;99.74;99727.78;6289018;20;2752511;-44
2023/11/16 05:01:54;;;;;;;;;6.00;4.00;;;;;8.66;99.84;99737.31;6286074;20;2748295;-41
2023/11/16 05:04:23;;;;;;;;;3.00;2.00;;;;;8.54;100.00;99745.03;6304462;20;1816154;-42
2023/11/16 05:06:51;;;;;;;;;12.00;9.00;;;;;8.63;99.86;99757.06;6316815;20;2753419;-42
2023/11/16 05:09:19;;;;;;;;;9.00;5.00;;;;;8.53;99.94;99748.69;6287086;20;2753480;-42
2023/11/16 05:11:50;;;;;;;;;5.00;4.00;;;;;8.42;100.00;99751.03;6285421;20;2748225;-41
2023/11/16 05:14:19;;;;;;;;;2.00;2.00;;;;;8.46;100.00;99757.09;6285250;20;2751301;-41
2023/11/16 05:16:47;;;;;;;;;3.50;3.00;;;;;8.40;100.00;99755.63;6286406;20;2748289;-42
2023/11/16 05:19:16;;;;;;;;;2.50;2.50;;;;;8.37;100.00;99750.38;6301571;20;1812841;-49
2023/11/16 05:21:45;;;;;;;;;2.50;2.50;;;;;8.17;100.00;99753.22;6316504;20;2755607;-42
2023/11/16 05:24:13;;;;;;;;;4.00;3.00;;;;;8.28;100.00;99758.88;6285726;20;2737770;-41
2023/11/16 05:26:41;;;;;;;;;6.75;4.00;;;;;8.23;100.00;99755.56;6334295;20;1812933;-41
2023/11/16 05:29:10;;;;;;;;;6.00;4.00;;;;;8.11;100.00;99757.94;6334305;20;1812792;-42
2023/11/16 05:31:38;;;;;;;;;5.00;5.00;;;;;7.83;100.00;99755.75;6316904;20;2741968;-41
2023/11/16 05:34:08;;;;;;;;;5.00;5.00;;;;;7.88;100.00;99766.22;6317717;20;2734683;-41
2023/11/16 05:36:36;;;;;;;;;5.00;5.00;;;;;8.14;100.00;99763.13;6282846;20;2747559;-41
2023/11/16 05:39:04;;;;;;;;;3.00;3.00;;;;;8.06;100.00;99764.44;6285680;20;2744235;-43
2023/11/16 05:41:33;;;;;;;;;4.25;4.25;;;;;7.81;100.00;99776.34;6334324;20;1820207;-41
2023/11/16 05:44:01;;;;;;;;;4.00;4.00;;;;;7.87;100.00;99785.84;6318235;20;2748251;-41
2023/11/16 05:46:32;;;;;;;;;4.00;3.50;;;;;7.93;100.00;99780.22;6282590;20;2754513;-41
2023/11/16 05:49:00;;;;;;;;;3.50;3.00;;;;;8.02;100.00;99778.91;6304780;20;1816108;-41
2023/11/16 05:51:39;;;;;;;;;4.25;3.00;;;;;7.81;100.00;99789.69;6333205;20;1813461;-42
2023/11/16 05:54:07;;;;;;;;;3.00;3.00;;;;;7.77;100.00;99787.28;6335842;20;1803891;-42
2023/11/16 05:56:40;;;;;;;;;6.50;6.50;;;;;7.71;100.00;99791.09;6331909;20;1807354;-41
2023/11/16 05:59:09;;;;;;;;;15.50;14.50;;;;;7.95;100.00;99789.03;6314739;20;2810680;-43
2023/11/16 06:01:39;;;;;;;;;13.20;13.20;;;;;7.61;100.00;99789.78;6303100;20;2807564;-41
2023/11/16 06:04:07;;;;;;;;;7.50;7.00;;;;;7.11;100.00;99793.91;6287153;20;2733651;-41
2023/11/16 06:06:35;;;;;;;;;7.00;7.00;;;;;7.43;100.00;99796.91;6317845;20;2730568;-41
2023/11/16 06:09:05;;;;;;;;;9.50;8.00;;;;;7.19;100.00;99810.44;6317620;20;2747151;-41
2023/11/16 06:11:33;;;;;;;;;11.00;9.00;;;;;7.14;100.00;99800.91;6281258;20;2763938;-39
2023/11/16 06:14:08;;;;;;;;;11.20;9.80;;;;;6.44;100.00;99810.22;6310754;20;2779478;-40
2023/11/16 06:16:45;;;;;;;;;9.86;8.14;;;;;7.00;100.00;99817.53;6323650;20;1808623;-42
2023/11/16 06:19:13;;;;;;;;;10.50;9.00;;;;;6.48;100.00;99826.03;6313747;20;2769079;-41
2023/11/16 06:21:41;;;;;;;;;15.50;11.00;;;;;7.08;100.00;99826.06;6283683;20;2796128;-41
2023/11/16 06:24:13;;;;;;;;;9.71;9.14;;;;;6.73;100.00;99817.81;6322515;20;1814873;-42
2023/11/16 06:26:43;;;;;;;;;7.50;7.00;;;;;7.44;100.00;99814.63;6357186;20;1802327;-40
2023/11/16 06:29:14;;;;;;;;;3.00;3.00;;;;;7.99;100.00;99813.81;6286008;20;2746107;-41
2023/11/16 06:31:42;;;;;;;;;7.00;5.00;;;;;8.07;100.00;99819.66;6282061;20;2750253;-41
2023/11/16 06:34:12;;;;;;;;;3.00;3.00;;;;;8.26;100.00;99822.28;6303569;20;1806608;-42
2023/11/16 06:36:42;;;;;;;;;6.00;6.00;;;;;9.25;99.55;99827.00;6313256;20;2743106;-42
2023/11/16 06:39:11;;;;;;;;;4.00;3.00;;;;;10.97;89.63;99826.06;6304268;20;1816038;-44
2023/11/16 06:41:43;;;;;;;;;5.00;5.00;;;;;14.05;71.79;99835.97;6333122;20;1810830;-43
2023/11/16 06:44:11;;;;;;;;;5.00;5.00;;;;;14.85;62.26;99832.69;6318656;20;2752431;-44
2023/11/16 06:46:39;;;;;;;;;4.00;3.00;;;;;16.43;56.17;99836.31;6283701;20;2754469;-46
2023/11/16 06:49:07;;;;;;;;;5.00;5.00;;;;;16.69;55.60;99842.22;6290147;20;2748213;-44
2023/11/16 06:51:35;;;;;;;;;6.00;4.00;;;;;17.58;51.68;99839.16;6285034;20;2741021;-49
2023/11/16 06:54:05;;;;;;;;;3.00;3.00;;;;;16.53;51.68;99841.81;6289411;20;2737767;-44
2023/11/16 06:56:36;;;;;;;;;4.00;4.00;;;;;14.45;59.80;99844.66;6287984;20;2740970;-45
2023/11/16 06:59:04;;;;;;;;;4.00;4.00;;;;;17.44;51.21;99846.66;6285491;20;2732663;-46
2023/11/16 07:01:35;;;;;;;;;3.00;3.00;;;;;16.65;52.19;99852.50;6284750;20;2739858;-44
2023/11/16 07:04:03;;;;;;;;;4.00;4.00;;;;;16.18;54.38;99848.31;6285032;20;2749259;-44
2023/11/16 07:06:31;;;;;;;;;10.00;9.00;;;;;14.54;58.31;99845.88;6285320;20;2773235;-44
2023/11/16 07:09:01;;;;;;;;;15.00;14.00;;;;;11.22;75.93;99838.00;6284048;20;2802418;-44
2023/11/16 07:11:32;;;;;;;;;8.00;8.00;;;;;10.22;84.12;99841.25;6356002;20;3463906;-44
2023/11/16 07:14:00;;;;;;;;;4.00;4.00;;;;;10.54;84.31;99830.47;6321817;20;2727588;-44
2023/11/16 07:16:29;;;;;;;;;6.00;6.00;;;;;10.29;85.56;99834.59;6307688;20;1807663;-46
2023/11/16 07:18:58;;;;;;;;;5.00;4.00;;;;;9.82;89.77;99838.16;6322860;20;2746150;-44
2023/11/16 07:21:27;;;;;;;;;4.00;4.00;;;;;10.02;89.34;99838.81;6287718;20;2752482;-42
2023/11/16 07:23:55;;;;;;;;;5.25;5.25;;;;;10.02;89.21;99833.47;6310479;20;1808458;-43
2023/11/16 07:26:23;;;;;;;;;5.50;5.50;;;;;10.50;87.41;99839.66;6319481;20;2738846;-42
2023/11/16 07:28:51;;;;;;;;;4.00;4.00;;;;;10.69;86.38;99836.72;6290317;20;2750480;-42
2023/11/16 07:31:21;;;;;;;;;4.00;4.00;;;;;10.76;86.10;99830.91;6289032;20;2745246;-45
2023/11/16 07:33:52;;;;;;;;;2.75;2.75;;;;;10.44;85.26;99818.53;6307270;20;1802480;-42
2023/11/16 07:36:27;;;;;;;;;5.50;4.00;;;;;10.98;84.63;99818.88;6317630;20;2748262;-42
2023/11/16 07:38:57;;;;;;;;;3.00;3.00;;;;;11.19;82.72;99822.94;6287808;20;2737798;-42
2023/11/16 07:41:28;;;;;;;;;5.00;4.00;;;;;11.18;81.47;99821.19;6288285;20;2756533;-42
2023/11/16 07:43:56;;;;;;;;;6.00;6.00;;;;;11.24;81.43;99821.78;6295066;20;2735759;-43
2023/11/16 07:46:24;;;;;;;;;4.00;3.00;;;;;11.45;79.83;99833.00;6287945;20;2743061;-43
2023/11/16 07:48:52;;;;;;;;;3.00;3.00;;;;;11.30;80.44;99829.47;6293114;20;2733573;-42
2023/11/16 07:51:21;;;;;;;;;2.75;2.50;;;;;11.30;80.89;99832.16;6304166;20;1794533;-43
2023/11/16 07:53:54;;;;;;;;;4.50;4.50;;;;;11.53;79.02;99830.69;6317459;20;2750335;-42
2023/11/16 07:56:22;;;;;;;;;5.00;5.00;;;;;11.41;78.81;99833.22;6291437;20;2756531;-43
2023/11/16 07:58:52;;;;;;;;;4.00;3.00;;;;;11.47;79.01;99821.19;6292974;20;2740966;-45
2023/11/16 08:01:29;;;;;;;;;5.00;3.00;;;;;11.77;77.03;99828.25;6290470;20;2737942;-43
2023/11/16 08:03:59;;;;;;;;;3.50;2.00;;;;;11.57;76.87;99827.72;6288254;20;2750280;-42
2023/11/16 08:06:28;;;;;;;;;5.00;3.00;;;;;11.29;78.20;99827.72;6292660;20;2743143;-45
2023/11/16 08:08:58;;;;;;;;;5.00;2.00;;;;;11.61;79.02;99834.66;6290683;20;2740009;-43
2023/11/16 08:11:26;;;;;;;;;4.00;3.00;;;;;11.70;78.06;99838.56;6287959;20;2744077;-43
2023/11/16 08:13:53;;;;;;;;;1.50;1.50;;;;;11.63;76.90;99832.69;6288389;20;2752333;-44
2023/11/16 08:16:22;;;;;;;;;3.50;2.00;;;;;11.74;77.02;99840.13;6305983;20;1809731;-44
2023/11/16 08:18:53;;;;;;;;;3.50;3.00;;;;;11.85;75.99;99842.97;6320552;20;2733655;-45
2023/11/16 08:21:22;;;;;;;;;2.00;2.00;;;;;11.81;77.47;99851.31;6286796;20;2744185;-43
2023/11/16 08:23:49;;;;;;;;;3.00;3.00;;;;;11.88;75.12;99846.47;6285792;20;2750319;-43
2023/11/16 08:26:19;;;;;;;;;2.50;2.00;;;;;11.76;76.77;99850.75;6287045;20;2748196;-43
2023/11/16 08:28:49;;;;;;;;;2.00;2.00;;;;;12.08;73.68;99854.09;6286760;20;2744037;-42
2023/11/16 08:31:18;;;;;;;;;4.00;2.00;;;;;12.16;73.43;99856.28;6287854;20;2751365;-43
2023/11/16 08:33:46;;;;;;;;;3.00;3.00;;;;;11.81;74.92;99843.25;6283815;20;2734683;-43
2023/11/16 08:36:16;;;;;;;;;2.00;2.00;;;;;12.54;71.77;99852.91;6286886;20;2744175;-44
2023/11/16 08:38:45;;;;;;;;;3.00;3.00;;;;;12.13;72.06;99846.56;6289766;20;2750288;-43
2023/11/16 08:41:16;;;;;;;;;3.00;3.00;;;;;12.10;73.27;99852.16;6305690;20;1797761;-42
2023/11/16 08:43:47;;;;;;;;;2.00;2.00;;;;;12.36;72.79;99847.75;6319733;20;2727515;-43
2023/11/16 08:46:20;;;;;;;;;1.50;1.50;;;;;12.46;70.59;99843.50;6286269;20;2739885;-41
2023/11/16 08:48:53;;;;;;;;;3.00;3.00;;;;;12.05;73.12;99839.00;6291258;20;2727399;-42
2023/11/16 08:51:22;;;;;;;;;3.25;1.75;;;;;12.39;71.91;99841.31;6303091;20;1808689;-42
2023/11/16 08:53:55;;;;;;;;;1.50;1.50;;;;;12.19;72.07;99834.53;6318207;20;2735743;-42
2023/11/16 08:56:27;;;;;;;;;7.00;5.00;;;;;12.78;70.31;99843.16;6286118;20;2742405;-42
2023/11/16 08:59:09;;;;;;;;;2.00;2.00;;;;;12.36;70.88;99837.00;6273544;20;2741951;-47
2023/11/16 09:01:37;;;;;;;;;4.00;2.50;;;;;12.66;71.01;99846.66;6281612;20;2741947;-44
2023/11/16 09:04:11;;;;;;;;;2.00;2.00;;;;;12.82;70.22;99850.06;6284631;20;2744075;-44
2023/11/16 09:06:43;;;;;;;;;3.00;3.00;;;;;13.01;69.30;99828.09;6284856;20;2745090;-45
2023/11/16 09:12:05;;;;;;;;;72.67;54.67;;;;;12.66;68.62;99846.66;6281152;20;3643144;-45
2023/11/16 09:14:34;;;;;;;;;9.67;9.33;;;;;12.63;67.59;99839.66;6282025;20;3489882;-44
2023/11/16 09:17:02;;;;;;;;;7.50;7.50;;;;;12.65;67.57;99839.56;6320226;20;2738846;-45
2023/11/16 09:19:33;;;;;;;;;10.50;10.50;;;;;12.96;66.90;99836.50;6287393;20;2774262;-44
2023/11/16 09:22:03;;;;;;;;;20.67;17.67;;;;;12.79;67.06;99842.16;6281551;20;3571143;-47
2023/11/16 09:24:36;;;;;;;;;16.33;12.33;;;;;13.20;65.99;99835.75;6314407;20;3525793;-48
2023/11/16 09:27:06;;;;;;;;;8.50;6.50;;;;;12.76;67.15;99828.91;6312732;20;2747193;-45
2023/11/16 09:29:38;;;;;;;;;39.67;34.67;;;;;12.84;66.95;99831.94;6284655;20;3594120;-45
2023/11/16 09:32:10;;;;;;;;;30.33;27.67;;;;;12.59;66.87;99835.47;6313587;20;3608621;-46
2023/11/16 09:34:41;;;;;;;;;38.00;33.67;;;;;12.57;67.51;99833.84;6279151;20;2857726;-44
2023/11/16 09:37:10;;;;;;;;;13.00;11.00;;;;;13.00;66.76;99836.28;6312326;20;3525273;-45
2023/11/16 09:39:39;;;;;;;;;2.00;2.00;;;;;12.98;65.80;99832.81;6283622;20;2739950;-44
2023/11/16 09:42:12;;;;;;;;;16.67;15.00;;;;;12.91;66.07;99833.25;6279599;20;3548202;-46
2023/11/16 09:44:55;;;;;;;;;4.00;4.00;;;;;13.35;64.63;99850.91;6315203;20;2744202;-46
2023/11/16 09:47:25;;;;;;;;;3.00;2.00;;;;;13.63;65.19;99838.13;6282548;20;2744117;-46
2023/11/16 09:49:56;;;;;;;;;1.50;1.00;;;;;13.52;67.04;99835.34;6285256;20;2726433;-47
2023/11/16 09:52:29;;;;;;;;;2.00;2.00;;;;;13.52;66.06;99828.09;6285392;20;2735736;-46
2023/11/16 09:54:59;;;;;;;;;3.00;3.00;;;;;13.58;66.38;99833.06;6286676;20;2746119;-48
2023/11/16 09:57:37;;;;;;;;;3.50;3.50;;;;;13.35;66.76;99832.03;6283991;20;2744018;-45
2023/11/16 10:00:18;;;;;;;;;2.00;2.00;;;;;13.97;65.13;99830.28;6285657;20;2748244;-48
2023/11/16 10:02:49;;;;;;;;;3.00;3.00;;;;;13.68;64.65;99819.78;6281872;20;2740912;-45
2023/11/16 10:05:35;;;;;;;;;2.00;2.00;;;;;14.20;62.51;99810.53;6284509;20;2753390;-44
2023/11/16 10:08:14;;;;;;;;;5.00;3.25;;;;;14.38;62.89;99811.00;6301606;20;1806658;-47
2023/11/16 10:11:01;;;;;;;;;2.00;2.00;;;;;14.09;63.72;99807.78;6316331;20;2745085;-46
2023/11/16 10:13:30;;;;;;;;;1.00;1.00;;;;;14.08;62.29;99799.78;6283864;20;2732565;-49
2023/11/16 10:16:10;;;;;;;;;1.50;1.50;;;;;13.64;63.69;99796.69;6284255;20;2733620;-50
2023/11/16 10:18:38;;;;;;;;;1.00;1.00;;;;;13.78;62.34;99788.44;6284875;20;2724202;-49
2023/11/16 10:21:08;;;;;;;;;1.00;1.00;;;;;13.92;61.90;99781.19;6303608;20;1799352;-50
2023/11/16 10:23:36;;;;;;;;;3.00;1.00;;;;;13.78;61.40;99777.66;6317674;20;2744081;-47
2023/11/16 10:26:06;;;;;;;;;2.00;2.00;;;;;14.33;59.68;99778.09;6285703;20;2744225;-47
2023/11/16 10:28:35;;;;;;;;;1.00;1.00;;;;;14.05;61.16;99769.34;6283216;20;2731552;-48
2023/11/16 10:31:05;;;;;;;;;4.00;4.00;;;;;14.19;60.66;99768.34;6284683;20;2744038;-47
2023/11/16 10:33:34;;;;;;;;;3.50;3.00;;;;;14.57;59.25;99777.22;6283089;20;2754486;-47
2023/11/16 10:36:03;;;;;;;;;8.00;6.00;;;;;14.35;59.87;99767.16;6280096;20;2732579;-46
2023/11/16 10:38:32;;;;;;;;;11.33;11.33;;;;;14.05;60.10;99766.63;6283219;20;3515923;-48
2023/11/16 10:41:03;;;;;;;;;5.50;4.50;;;;;13.77;61.04;99773.25;6314156;20;2744058;-47
2023/11/16 10:43:30;;;;;;;;;3.00;3.00;;;;;13.81;61.83;99768.47;6280306;20;2743049;-47
2023/11/16 10:46:00;;;;;;;;;3.00;3.00;;;;;14.04;61.84;99766.78;6301657;20;1802465;-45
2023/11/16 10:48:29;;;;;;;;;6.50;6.50;;;;;14.14;61.28;99758.81;6315424;20;2734689;-45
2023/11/16 10:51:01;;;;;;;;;7.00;7.00;;;;;14.15;60.46;99749.78;6282668;20;2737823;-45
2023/11/16 10:53:38;;;;;;;;;1.00;1.00;;;;;14.02;60.76;99749.81;6285471;20;2729450;-45
2023/11/16 10:56:08;;;;;;;;;4.00;4.00;;;;;13.74;59.83;99751.00;6282154;20;2749279;-47
2023/11/16 10:58:41;;;;;;;;;2.00;2.00;;;;;13.88;59.01;99744.59;6287414;20;2744156;-48
2023/11/16 11:01:17;;;;;;;;;1.00;1.00;;;;;14.07;59.45;99739.53;6283239;20;2724257;-46
2023/11/16 11:03:48;;;;;;;;;9.00;6.00;;;;;14.38;58.85;99745.31;6279047;20;2750438;-47
2023/11/16 11:06:25;;;;;;;;;1.00;1.00;;;;;14.29;58.57;99741.47;6281779;20;2723282;-46
2023/11/16 11:08:57;;;;;;;;;5.00;1.75;;;;;14.50;58.08;99738.97;6295336;20;1800359;-48
2023/11/16 11:11:27;;;;;;;;;2.00;2.00;;;;;14.07;58.10;99750.34;6313250;20;2744052;-47
2023/11/16 11:13:57;;;;;;;;;2.00;2.00;;;;;14.31;58.29;99742.22;6283637;20;2732683;-49
2023/11/16 11:16:29;;;;;;;;;0.00;0.00;;;;;13.99;58.00;99733.84;6299435;20;1800401;-48
2023/11/16 11:18:58;;;;;;;;;1.00;1.00;;;;;14.02;58.77;99725.53;6315272;20;2727479;-49
2023/11/16 11:21:27;;;;;;;;;1.00;1.00;;;;;14.18;58.68;99728.78;6284095;20;2456528;-49
2023/11/16 11:24:08;;;;;;;;;2.00;1.00;;;;;14.52;57.25;99734.31;6285174;20;2730513;-46
2023/11/16 11:26:48;;;;;;;;;1.00;1.00;;;;;14.28;57.70;99729.81;6283501;20;2730611;-49
2023/11/16 11:29:23;;;;;;;;;24.67;22.00;;;;;14.68;57.33;99721.34;6278649;20;3577316;-41
2023/11/16 11:32:18;;;;;;;;;18.50;17.50;;;;;13.98;59.46;99715.91;6274349;20;2817999;-42
2023/11/16 11:34:49;;;;;;;;;5.50;2.50;;;;;13.65;59.85;99711.22;6282104;20;2754469;-43